Time;durP1;ratioP1;P1;durP2;ratioP2;P2;SDS_P1;SDS_P2;PMS_P1;PMS_P2;Temp;Humidity;BMP_temperature;BMP_pressure;BME280_temperature;BME280_humidity;BME280_pressure;Samples;Min_cycle;Max_cycle;Signal;HPM_P1;HPM_P2
2024/01/09 00:00:25;;;;;;;4.43;1.90;;;-2.20;99.90;;;;;;5016752;28;20052;-71
2024/01/09 00:02:51;;;;;;;5.80;1.67;;;-2.10;99.90;;;;;;5012963;28;20287;-70
2024/01/09 00:05:16;;;;;;;5.60;1.80;;;-2.20;99.90;;;;;;5018353;28;20033;-70
2024/01/09 00:07:42;;;;;;;4.07;1.60;;;-2.10;99.90;;;;;;5019689;28;20050;-69
2024/01/09 00:10:08;;;;;;;5.43;1.90;;;-2.20;99.90;;;;;;5001601;28;20215;-69
2024/01/09 00:12:34;;;;;;;4.15;1.75;;;-2.20;99.90;;;;;;5018460;28;20402;-69
2024/01/09 00:14:59;;;;;;;5.03;1.60;;;-2.20;99.90;;;;;;5010558;28;20056;-69
2024/01/09 00:17:27;;;;;;;4.45;1.65;;;-2.20;99.90;;;;;;5015768;28;20038;-69
2024/01/09 00:19:53;;;;;;;6.87;2.30;;;-2.20;99.90;;;;;;5015333;28;20439;-69
2024/01/09 00:22:19;;;;;;;6.47;1.70;;;-2.30;99.90;;;;;;5001591;28;20061;-69
2024/01/09 00:24:48;;;;;;;5.13;1.80;;;-2.30;99.90;;;;;;5022722;28;20041;-69
2024/01/09 00:27:17;;;;;;;4.30;1.95;;;-2.30;99.90;;;;;;5020442;28;20061;-69
2024/01/09 00:29:43;;;;;;;4.65;1.92;;;-2.30;99.90;;;;;;5022391;28;20432;-69
2024/01/09 00:32:09;;;;;;;3.35;1.40;;;-2.30;99.90;;;;;;5024331;28;20067;-69
2024/01/09 00:34:40;;;;;;;3.97;1.80;;;-2.40;99.90;;;;;;5023098;28;20034;-69
2024/01/09 00:37:06;;;;;;;6.05;2.15;;;-2.30;99.90;;;;;;5025780;28;20054;-69
2024/01/09 00:39:33;;;;;;;3.92;1.90;;;-2.40;99.90;;;;;;5019714;28;20131;-69
2024/01/09 00:41:59;;;;;;;5.65;2.28;;;-2.40;99.90;;;;;;5023270;28;20049;-69
2024/01/09 00:44:25;;;;;;;4.95;1.80;;;-2.40;99.90;;;;;;5024012;28;20057;-69
2024/01/09 00:46:53;;;;;;;4.95;1.80;;;-2.40;99.90;;;;;;5007936;28;20041;-69
2024/01/09 00:49:22;;;;;;;5.18;1.90;;;-2.40;99.90;;;;;;5024808;28;20041;-69
2024/01/09 00:51:48;;;;;;;3.92;1.90;;;-2.40;99.90;;;;;;5023903;28;20045;-69
2024/01/09 00:54:14;;;;;;;3.80;1.70;;;-2.40;99.90;;;;;;5032234;28;20061;-69
2024/01/09 00:56:40;;;;;;;5.95;1.77;;;-2.40;99.90;;;;;;5022677;28;20124;-69
2024/01/09 00:59:07;;;;;;;3.40;1.73;;;-2.40;99.90;;;;;;5019271;28;20049;-76
2024/01/09 01:01:33;;;;;;;5.32;1.92;;;-2.50;99.90;;;;;;5021631;28;20135;-70
2024/01/09 01:04:02;;;;;;;5.18;2.20;;;-2.50;99.90;;;;;;5023901;28;20053;-69
2024/01/09 01:06:28;;;;;;;5.10;1.67;;;-2.50;99.90;;;;;;5023451;28;20107;-69
2024/01/09 01:08:57;;;;;;;7.32;1.90;;;-2.50;99.90;;;;;;5024818;28;20521;-69
2024/01/09 01:11:23;;;;;;;5.22;1.92;;;-2.50;99.90;;;;;;5020362;28;20508;-69
2024/01/09 01:13:49;;;;;;;4.00;2.08;;;-2.50;99.90;;;;;;5023838;28;20478;-69
2024/01/09 01:16:15;;;;;;;3.70;1.70;;;-2.60;99.90;;;;;;5017411;28;20048;-69
2024/01/09 01:18:40;;;;;;;6.00;2.20;;;-2.50;99.90;;;;;;5019783;28;20116;-69
2024/01/09 01:21:06;;;;;;;6.50;2.30;;;-2.60;99.90;;;;;;5022329;28;20057;-69
2024/01/09 01:23:32;;;;;;;5.63;2.23;;;-2.60;99.90;;;;;;5013906;28;20038;-69
2024/01/09 01:26:00;;;;;;;5.33;1.83;;;-2.60;99.90;;;;;;5022943;28;20053;-69
2024/01/09 01:28:26;;;;;;;3.13;1.60;;;-2.60;99.90;;;;;;5020008;28;20356;-69
2024/01/09 01:30:52;;;;;;;3.27;1.87;;;-2.60;99.90;;;;;;5018465;28;20037;-69
2024/01/09 01:33:17;;;;;;;5.47;1.67;;;-2.70;99.90;;;;;;5023670;28;20681;-69
2024/01/09 01:35:43;;;;;;;9.60;1.77;;;-2.70;99.90;;;;;;5018676;28;20037;-69
2024/01/09 01:38:11;;;;;;;5.03;1.80;;;-2.70;99.90;;;;;;5017634;28;20440;-69
2024/01/09 01:40:37;;;;;;;3.75;1.70;;;-2.70;99.90;;;;;;5024788;28;20038;-69
2024/01/09 01:43:05;;;;;;;4.40;1.93;;;-2.70;99.90;;;;;;5023050;28;20045;-68
2024/01/09 01:45:30;;;;;;;6.25;1.83;;;-2.70;99.90;;;;;;5023701;28;20037;-69
2024/01/09 01:47:57;;;;;;;5.97;1.67;;;-2.70;99.90;;;;;;5025163;28;20491;-68
2024/01/09 01:50:25;;;;;;;3.50;1.60;;;-2.70;99.90;;;;;;5026690;28;20050;-69
2024/01/09 01:52:51;;;;;;;5.38;2.28;;;-2.70;99.90;;;;;;5014651;28;20092;-69
2024/01/09 01:55:24;;;;;;;3.50;1.98;;;-2.70;99.90;;;;;;5024533;28;20045;-68
2024/01/09 01:57:53;;;;;;;6.00;1.92;;;-2.70;99.90;;;;;;5025800;28;20132;-68
2024/01/09 02:00:20;;;;;;;3.67;1.25;;;-2.70;99.90;;;;;;5022400;28;20380;-69
2024/01/09 02:02:50;;;;;;;4.43;2.00;;;-2.70;99.90;;;;;;5026157;28;20511;-68
2024/01/09 02:05:17;;;;;;;3.03;1.33;;;-2.80;99.90;;;;;;5028626;28;20041;-69
2024/01/09 02:07:45;;;;;;;7.38;1.67;;;-2.80;99.90;;;;;;5020871;28;20124;-68
2024/01/09 02:10:14;;;;;;;4.30;2.20;;;-2.80;99.90;;;;;;5026191;28;20052;-69
2024/01/09 02:12:39;;;;;;;5.20;2.20;;;-2.80;99.90;;;;;;5019603;28;20502;-69
2024/01/09 02:15:05;;;;;;;6.40;1.87;;;-2.80;99.90;;;;;;5023949;28;20044;-69
2024/01/09 02:17:32;;;;;;;5.68;2.20;;;-2.90;99.90;;;;;;5027055;28;20060;-68
2024/01/09 02:20:05;;;;;;;3.25;1.63;;;-2.80;99.90;;;;;;5024495;28;20354;-68
2024/01/09 02:22:30;;;;;;;4.28;1.60;;;-2.90;99.90;;;;;;4999241;28;20048;-68
2024/01/09 02:24:56;;;;;;;3.57;1.50;;;-2.90;99.90;;;;;;5024273;28;20454;-68
2024/01/09 02:27:42;;;;;;;4.40;1.87;;;-2.90;99.90;;;;;;5024761;28;20313;-68
2024/01/09 02:30:09;;;;;;;9.13;2.05;;;-2.90;99.90;;;;;;5023698;28;20065;-68
2024/01/09 02:32:38;;;;;;;4.60;2.00;;;-2.90;99.90;;;;;;5029991;28;20049;-68
2024/01/09 02:35:04;;;;;;;7.15;1.52;;;-2.90;99.90;;;;;;5027109;28;20524;-68
2024/01/09 02:37:30;;;;;;;4.70;2.10;;;-2.90;99.90;;;;;;5021295;28;20045;-69
2024/01/09 02:40:05;;;;;;;7.90;2.00;;;-3.00;99.90;;;;;;5026075;28;20072;-68
2024/01/09 02:42:31;;;;;;;6.47;2.25;;;-3.00;99.90;;;;;;5022415;28;20045;-69
2024/01/09 02:44:56;;;;;;;5.37;1.93;;;-2.90;99.90;;;;;;5028702;28;20056;-68
2024/01/09 02:47:23;;;;;;;4.60;1.90;;;-3.00;99.90;;;;;;5028432;28;20424;-68
2024/01/09 02:49:48;;;;;;;5.68;2.22;;;-3.00;99.90;;;;;;5024406;28;20045;-68
2024/01/09 02:52:17;;;;;;;4.30;1.70;;;-3.00;99.90;;;;;;5022679;28;20105;-68
2024/01/09 02:54:45;;;;;;;3.92;2.03;;;-3.00;99.90;;;;;;5020120;28;20536;-68
2024/01/09 02:57:12;;;;;;;5.20;1.65;;;-3.00;99.90;;;;;;5020507;28;20119;-69
2024/01/09 02:59:38;;;;;;;3.08;1.40;;;-3.00;99.90;;;;;;5020761;28;20056;-69
2024/01/09 03:02:07;;;;;;;6.80;2.47;;;-3.00;99.90;;;;;;5014969;28;20131;-69
2024/01/09 03:04:32;;;;;;;5.15;2.10;;;-3.00;99.90;;;;;;5019909;28;20153;-69
2024/01/09 03:06:58;;;;;;;7.40;2.07;;;-3.00;99.90;;;;;;5007439;28;20128;-69
2024/01/09 03:09:24;;;;;;;3.93;1.50;;;-3.00;99.90;;;;;;5023132;28;20152;-69
2024/01/09 03:11:50;;;;;;;5.65;1.80;;;-3.10;99.90;;;;;;5022005;28;20069;-69
2024/01/09 03:14:15;;;;;;;4.20;1.63;;;-3.00;99.90;;;;;;5024406;28;20567;-69
2024/01/09 03:16:41;;;;;;;3.70;1.70;;;-3.10;99.90;;;;;;5021390;28;20869;-69
2024/01/09 03:19:07;;;;;;;5.73;1.57;;;-3.10;99.90;;;;;;5024673;28;20403;-69
2024/01/09 03:21:32;;;;;;;6.23;1.70;;;-3.10;99.90;;;;;;5004145;28;20068;-69
2024/01/09 03:23:58;;;;;;;4.47;2.00;;;-3.10;99.90;;;;;;5022382;28;20045;-69
2024/01/09 03:26:24;;;;;;;4.90;1.87;;;-3.10;99.90;;;;;;5020870;28;20068;-69
2024/01/09 03:28:49;;;;;;;3.83;1.73;;;-3.10;99.90;;;;;;5023857;28;20037;-69
2024/01/09 03:31:24;;;;;;;5.63;1.87;;;-3.10;99.90;;;;;;5021390;28;20454;-69
2024/01/09 03:33:50;;;;;;;4.28;1.70;;;-3.20;99.90;;;;;;5007494;28;20081;-69
2024/01/09 03:36:17;;;;;;;3.78;1.75;;;-3.20;99.90;;;;;;5013149;28;20520;-69
2024/01/09 03:38:44;;;;;;;4.63;1.33;;;-3.10;99.90;;;;;;5020615;28;20597;-68
2024/01/09 03:41:10;;;;;;;5.40;1.98;;;-3.20;99.90;;;;;;5023715;28;20132;-69
2024/01/09 03:43:38;;;;;;;3.63;1.60;;;-3.20;99.90;;;;;;5018878;28;20041;-69
2024/01/09 03:46:04;;;;;;;6.50;1.70;;;-3.30;99.90;;;;;;5024380;28;20091;-69
2024/01/09 03:48:29;;;;;;;5.80;1.70;;;-3.20;99.90;;;;;;5020511;28;20076;-69
2024/01/09 03:50:55;;;;;;;3.63;1.80;;;-3.20;99.90;;;;;;5023727;28;20412;-69
2024/01/09 03:53:21;;;;;;;8.70;2.17;;;-3.20;99.90;;;;;;5015354;28;20045;-69
2024/01/09 03:55:47;;;;;;;5.80;1.90;;;-3.30;99.90;;;;;;5017838;28;20505;-68
2024/01/09 03:58:12;;;;;;;5.63;1.70;;;-3.30;99.90;;;;;;5020911;28;20082;-69
2024/01/09 04:00:41;;;;;;;4.50;1.67;;;-3.30;99.90;;;;;;5019610;28;20041;-68
2024/01/09 04:03:06;;;;;;;3.87;1.77;;;-3.30;99.90;;;;;;5019407;28;20508;-68
2024/01/09 04:05:32;;;;;;;5.00;1.90;;;-3.30;99.90;;;;;;5021517;28;20111;-69
2024/01/09 04:07:58;;;;;;;4.73;1.70;;;-3.30;99.90;;;;;;5024603;28;20383;-68
2024/01/09 04:10:24;;;;;;;3.53;1.83;;;-3.30;99.90;;;;;;5007259;28;20274;-68
2024/01/09 04:12:50;;;;;;;4.30;1.67;;;-3.30;99.90;;;;;;5020903;28;20045;-69
2024/01/09 04:15:19;;;;;;;4.67;2.00;;;-3.30;99.90;;;;;;5023551;28;20282;-68
2024/01/09 04:17:44;;;;;;;4.90;1.80;;;-3.30;99.90;;;;;;5016755;28;20042;-68
2024/01/09 04:20:12;;;;;;;5.20;2.40;;;-3.30;99.90;;;;;;5024118;28;20051;-68
2024/01/09 04:22:37;;;;;;;5.53;1.60;;;-3.40;99.90;;;;;;5019097;28;20444;-68
2024/01/09 04:25:03;;;;;;;3.73;1.80;;;-3.30;99.90;;;;;;5026777;28;20110;-69
2024/01/09 04:27:29;;;;;;;6.63;2.17;;;-3.40;99.90;;;;;;5018484;28;20328;-69
2024/01/09 04:29:55;;;;;;;5.30;1.80;;;-3.40;99.90;;;;;;5021502;28;20069;-68
2024/01/09 04:32:20;;;;;;;4.87;2.47;;;-3.40;99.90;;;;;;5005236;28;20578;-68
2024/01/09 04:34:46;;;;;;;3.20;1.37;;;-3.40;99.90;;;;;;5022972;28;20042;-68
2024/01/09 04:37:15;;;;;;;5.30;1.97;;;-3.40;99.90;;;;;;5020439;28;20270;-68
2024/01/09 04:39:43;;;;;;;5.45;2.05;;;-3.40;99.90;;;;;;5020738;28;20038;-69
2024/01/09 04:42:09;;;;;;;4.40;1.60;;;-3.40;99.90;;;;;;5019376;28;20106;-69
2024/01/09 04:44:34;;;;;;;5.33;2.57;;;-3.40;99.90;;;;;;5019043;28;20132;-68
2024/01/09 04:47:00;;;;;;;5.97;1.70;;;-3.50;99.90;;;;;;5022241;28;20391;-68
2024/01/09 04:49:26;;;;;;;6.43;1.97;;;-3.40;99.90;;;;;;5024819;28;20474;-68
2024/01/09 04:51:54;;;;;;;6.07;2.22;;;-3.50;99.90;;;;;;5018467;28;20402;-69
2024/01/09 04:54:20;;;;;;;4.43;2.13;;;-3.50;99.90;;;;;;5019091;28;20095;-68
2024/01/09 04:56:45;;;;;;;3.10;1.40;;;-3.50;99.90;;;;;;5016754;28;20113;-68
2024/01/09 04:59:11;;;;;;;4.40;1.43;;;-3.50;99.90;;;;;;5004592;28;20545;-68
2024/01/09 05:01:36;;;;;;;4.27;2.00;;;-3.50;99.90;;;;;;5018755;28;20115;-68
2024/01/09 05:04:04;;;;;;;4.70;2.20;;;-3.50;99.90;;;;;;5021821;28;20136;-68
2024/01/09 05:06:30;;;;;;;6.43;2.45;;;-3.50;99.90;;;;;;5017709;28;20040;-69
2024/01/09 05:08:55;;;;;;;4.60;2.03;;;-3.60;99.90;;;;;;5020364;28;20623;-69
2024/01/09 05:11:21;;;;;;;4.30;2.00;;;-3.60;99.90;;;;;;5020159;28;20061;-69
2024/01/09 05:13:47;;;;;;;6.43;2.70;;;-3.60;99.90;;;;;;5028668;28;20048;-68
2024/01/09 05:16:13;;;;;;;2.97;1.93;;;-3.60;99.90;;;;;;5023757;28;20136;-68
2024/01/09 05:18:40;;;;;;;9.90;2.03;;;-3.60;99.90;;;;;;5025011;28;20409;-68
2024/01/09 05:21:05;;;;;;;2.88;1.45;;;-3.60;99.90;;;;;;5002800;28;20089;-68
2024/01/09 05:23:31;;;;;;;3.27;1.70;;;-3.60;99.90;;;;;;5022148;28;20076;-69
2024/01/09 05:25:57;;;;;;;5.00;2.10;;;-3.60;99.90;;;;;;5024916;28;20056;-68
2024/01/09 05:28:22;;;;;;;4.27;1.70;;;-3.60;99.90;;;;;;5023960;28;20095;-68
2024/01/09 05:30:48;;;;;;;4.20;2.10;;;-3.70;99.90;;;;;;5022352;28;20649;-68
2024/01/09 05:33:14;;;;;;;4.67;1.80;;;-3.60;99.90;;;;;;5024287;28;20421;-68
2024/01/09 05:35:39;;;;;;;5.27;2.10;;;-3.70;99.90;;;;;;5024326;28;20418;-68
2024/01/09 05:38:05;;;;;;;5.17;1.63;;;-3.70;99.90;;;;;;5022510;28;20049;-68
2024/01/09 05:40:30;;;;;;;4.60;1.93;;;-3.70;99.90;;;;;;5024740;28;20037;-68
2024/01/09 05:42:56;;;;;;;5.00;1.97;;;-3.70;99.90;;;;;;5021639;28;20129;-68
2024/01/09 05:45:22;;;;;;;4.67;1.80;;;-3.70;99.90;;;;;;5021494;28;20437;-69
2024/01/09 05:47:47;;;;;;;5.57;1.67;;;-3.70;99.90;;;;;;5023009;28;20502;-68
2024/01/09 05:50:13;;;;;;;4.30;1.73;;;-3.70;99.90;;;;;;5023377;28;20429;-68
2024/01/09 05:52:39;;;;;;;2.27;1.20;;;-3.70;99.90;;;;;;5017556;28;20044;-69
2024/01/09 05:55:06;;;;;;;4.13;1.90;;;-3.70;99.90;;;;;;5025971;28;20460;-68
2024/01/09 05:57:32;;;;;;;4.97;2.00;;;-3.70;99.90;;;;;;5020547;28;20045;-68
2024/01/09 05:59:58;;;;;;;6.93;2.00;;;-3.70;99.90;;;;;;5020698;28;20054;-68
2024/01/09 06:02:27;;;;;;;5.88;2.10;;;-3.70;99.90;;;;;;5022701;28;20087;-68
2024/01/09 06:04:52;;;;;;;4.20;1.73;;;-3.80;99.90;;;;;;5024522;28;20186;-68
2024/01/09 06:07:18;;;;;;;4.40;2.03;;;-3.80;99.90;;;;;;5027055;28;20080;-68
2024/01/09 06:09:45;;;;;;;6.40;1.70;;;-3.80;99.90;;;;;;5021767;28;20500;-68
2024/01/09 06:12:11;;;;;;;5.75;2.25;;;-3.80;99.90;;;;;;4998489;28;20068;-68
2024/01/09 06:14:36;;;;;;;4.47;1.73;;;-3.80;99.90;;;;;;5019170;28;20057;-69
2024/01/09 06:17:02;;;;;;;4.67;1.83;;;-3.80;99.90;;;;;;5023674;28;20099;-68
2024/01/09 06:19:28;;;;;;;4.77;2.33;;;-3.80;99.90;;;;;;5025680;28;20489;-69
2024/01/09 06:21:53;;;;;;;3.93;1.60;;;-3.80;99.90;;;;;;5022740;28;20056;-68
2024/01/09 06:24:20;;;;;;;5.97;2.17;;;-3.80;99.90;;;;;;5024026;28;20033;-69
2024/01/09 06:26:46;;;;;;;4.45;2.00;;;-3.80;99.90;;;;;;5004288;28;20046;-68
2024/01/09 06:29:12;;;;;;;6.87;1.97;;;-3.90;99.90;;;;;;5025447;28;20228;-69
2024/01/09 06:31:40;;;;;;;6.63;1.97;;;-3.90;99.90;;;;;;5023761;28;20056;-68
2024/01/09 06:34:06;;;;;;;5.95;2.63;;;-3.90;99.90;;;;;;5022684;28;20038;-68
2024/01/09 06:36:32;;;;;;;4.32;2.08;;;-3.90;99.90;;;;;;5020627;28;20033;-68
2024/01/09 06:38:58;;;;;;;5.20;2.30;;;-3.90;99.90;;;;;;5026403;28;20045;-68
2024/01/09 06:41:23;;;;;;;5.53;2.47;;;-3.90;99.90;;;;;;5025249;28;20052;-68
2024/01/09 06:43:50;;;;;;;3.73;1.80;;;-3.90;99.90;;;;;;5001327;28;20841;-74
2024/01/09 06:46:16;;;;;;;4.60;1.98;;;-3.90;99.90;;;;;;5023116;28;20045;-73
2024/01/09 06:48:42;;;;;;;4.97;1.77;;;-3.90;99.90;;;;;;5023740;28;20103;-69
2024/01/09 06:51:07;;;;;;;10.27;2.30;;;-3.90;99.90;;;;;;5025903;28;20037;-68
2024/01/09 06:53:33;;;;;;;5.17;1.80;;;-4.00;99.90;;;;;;5023791;28;20048;-68
2024/01/09 06:56:01;;;;;;;6.17;2.37;;;-4.00;99.90;;;;;;5007078;28;20049;-68
2024/01/09 06:58:30;;;;;;;5.28;2.13;;;-4.00;99.90;;;;;;5025140;28;20041;-68
2024/01/09 07:00:55;;;;;;;4.90;1.80;;;-4.00;99.90;;;;;;5021709;28;20041;-68
2024/01/09 07:03:21;;;;;;;5.97;2.07;;;-4.00;99.90;;;;;;5022888;28;20064;-68
2024/01/09 07:05:46;;;;;;;4.03;1.80;;;-4.00;99.90;;;;;;5024213;28;20049;-68
2024/01/09 07:08:12;;;;;;;5.13;1.57;;;-4.00;99.90;;;;;;5015818;28;20050;-68
2024/01/09 07:10:38;;;;;;;5.90;2.50;;;-4.10;99.90;;;;;;5022969;28;20037;-68
2024/01/09 07:13:04;;;;;;;5.17;1.87;;;-4.00;99.90;;;;;;5021155;28;20053;-68
2024/01/09 07:15:29;;;;;;;4.73;2.00;;;-4.10;99.90;;;;;;5021361;28;20037;-66
2024/01/09 07:17:55;;;;;;;7.07;2.40;;;-4.00;99.90;;;;;;5021764;28;20553;-67
2024/01/09 07:20:21;;;;;;;3.90;1.88;;;-4.10;99.90;;;;;;5023415;28;20045;-67
2024/01/09 07:22:49;;;;;;;7.37;2.50;;;-4.10;99.90;;;;;;5025861;28;20816;-66
2024/01/09 07:25:15;;;;;;;5.82;2.03;;;-4.00;99.90;;;;;;5043059;28;20121;-66
2024/01/09 07:27:40;;;;;;;5.63;1.93;;;-4.10;99.90;;;;;;5024910;28;20517;-67
2024/01/09 07:30:07;;;;;;;6.53;2.23;;;-4.10;99.90;;;;;;5022813;28;20065;-67
2024/01/09 07:32:34;;;;;;;5.68;2.38;;;-4.10;99.90;;;;;;5021521;28;20347;-67
2024/01/09 07:35:00;;;;;;;4.07;1.90;;;-4.10;99.90;;;;;;5042198;28;20377;-67
2024/01/09 07:37:28;;;;;;;5.57;1.93;;;-4.10;99.90;;;;;;5020545;28;20049;-66
2024/01/09 07:39:54;;;;;;;5.35;2.10;;;-4.10;99.90;;;;;;5024308;28;20095;-66
2024/01/09 07:42:20;;;;;;;5.77;2.33;;;-4.10;99.90;;;;;;5022618;28;20045;-67
2024/01/09 07:44:45;;;;;;;5.45;2.25;;;-4.10;99.90;;;;;;5028628;28;20680;-66
2024/01/09 07:47:14;;;;;;;9.60;2.73;;;-4.10;99.90;;;;;;5024687;28;20080;-66
2024/01/09 07:49:39;;;;;;;5.18;2.33;;;-4.20;99.90;;;;;;5016585;28;20049;-66
2024/01/09 07:52:05;;;;;;;4.80;2.43;;;-4.20;99.90;;;;;;5024619;28;20199;-67
2024/01/09 07:54:32;;;;;;;6.03;2.40;;;-4.10;99.90;;;;;;5024252;28;20037;-66
2024/01/09 07:56:57;;;;;;;6.28;2.63;;;-4.20;99.90;;;;;;5024319;28;20301;-67
2024/01/09 07:59:23;;;;;;;2.73;1.50;;;-4.20;99.90;;;;;;5020828;28;20073;-67
2024/01/09 08:01:55;;;;;;;7.97;2.63;;;-4.20;99.90;;;;;;5022564;28;20092;-66
2024/01/09 08:04:22;;;;;;;11.55;3.17;;;-4.10;99.90;;;;;;5007242;28;20050;-66
2024/01/09 08:06:50;;;;;;;4.32;1.95;;;-4.10;99.90;;;;;;5023028;28;20140;-66
2024/01/09 08:09:19;;;;;;;5.68;2.70;;;-4.10;99.90;;;;;;5025683;28;20108;-67
2024/01/09 08:11:45;;;;;;;5.78;2.35;;;-4.10;99.90;;;;;;5028212;28;20131;-66
2024/01/09 08:14:12;;;;;;;5.38;2.33;;;-4.10;99.90;;;;;;5021882;28;20116;-66
2024/01/09 08:16:38;;;;;;;;;;;-4.10;99.90;;;;;;5019369;28;20048;-67
2024/01/09 08:19:04;;;;;;;5.20;2.28;;;-4.10;99.90;;;;;;5022892;28;19917;-66
2024/01/09 08:21:31;;;;;;;7.93;2.67;;;-4.10;99.90;;;;;;5013913;28;20500;-66
2024/01/09 08:23:57;;;;;;;;;;;-4.10;99.90;;;;;;5024549;28;20525;-66
2024/01/09 08:26:22;;;;;;;5.95;2.08;;;-4.10;99.90;;;;;;5027755;28;19920;-66
2024/01/09 08:28:48;;;;;;;5.50;1.83;;;-4.10;99.90;;;;;;5020926;28;20053;-66
2024/01/09 08:31:14;;;;;;;6.20;2.10;;;-4.10;99.90;;;;;;5005297;28;20042;-66
2024/01/09 08:33:40;;;;;;;6.17;2.43;;;-4.00;99.90;;;;;;5006386;28;20041;-69
2024/01/09 08:36:06;;;;;;;5.90;2.33;;;-4.00;99.90;;;;;;5025110;28;20041;-66
2024/01/09 08:38:31;;;;;;;9.43;2.55;;;-4.00;99.90;;;;;;5023740;28;20041;-66
2024/01/09 08:40:58;;;;;;;5.60;2.47;;;-4.00;99.90;;;;;;5012403;28;20179;-67
2024/01/09 08:43:24;;;;;;;3.75;2.45;;;-4.00;99.90;;;;;;5029136;28;20060;-67
2024/01/09 08:45:50;;;;;;;8.15;2.40;;;-3.90;99.90;;;;;;5027109;28;20053;-67
2024/01/09 08:48:18;;;;;;;4.43;1.95;;;-3.90;99.90;;;;;;5024957;28;20080;-66
2024/01/09 08:50:44;;;;;;;6.43;2.55;;;-3.90;99.90;;;;;;5027416;28;20060;-66
2024/01/09 08:53:10;;;;;;;4.50;2.63;;;-3.90;99.90;;;;;;5019663;28;20409;-67
2024/01/09 08:55:36;;;;;;;6.57;2.17;;;-3.90;99.90;;;;;;5024001;28;20034;-66
2024/01/09 08:58:02;;;;;;;4.28;2.30;;;-3.80;99.90;;;;;;5031012;28;20059;-66
2024/01/09 09:00:28;;;;;;;4.03;1.90;;;-3.80;99.90;;;;;;5016875;28;20164;-66
2024/01/09 09:02:54;;;;;;;3.97;1.93;;;-3.80;99.90;;;;;;5024026;28;20127;-67
2024/01/09 09:05:19;;;;;;;6.47;2.63;;;-3.70;99.90;;;;;;5028274;28;20595;-66
2024/01/09 09:07:45;;;;;;;6.60;2.40;;;-3.70;99.90;;;;;;5027152;28;20140;-66
2024/01/09 09:10:11;;;;;;;9.90;2.73;;;-3.70;99.90;;;;;;5020276;28;20459;-66
2024/01/09 09:12:37;;;;;;;5.43;2.07;;;-3.60;99.90;;;;;;5022552;28;20469;-66
2024/01/09 09:15:03;;;;;;;5.00;2.27;;;-3.60;99.90;;;;;;5027871;28;20132;-67
2024/01/09 09:17:30;;;;;;;4.97;2.22;;;-3.60;99.90;;;;;;5028244;28;20136;-66
2024/01/09 09:19:57;;;;;;;5.57;2.22;;;-3.50;99.90;;;;;;5015999;28;20052;-67
2024/01/09 09:22:25;;;;;;;4.50;1.92;;;-3.50;99.90;;;;;;5020056;28;20077;-67
2024/01/09 09:24:55;;;;;;;6.28;2.28;;;-3.50;99.90;;;;;;5030929;28;20520;-66
2024/01/09 09:27:21;;;;;;;4.18;2.10;;;-3.40;99.90;;;;;;5031908;28;20188;-66
2024/01/09 09:29:47;;;;;;;4.25;2.03;;;-3.40;99.90;;;;;;5025593;28;20069;-66
2024/01/09 09:32:13;;;;;;;6.83;1.93;;;-3.40;99.90;;;;;;5036956;28;20079;-66
2024/01/09 09:34:42;;;;;;;5.10;2.45;;;-3.30;99.90;;;;;;5024634;28;20370;-67
2024/01/09 09:37:08;;;;;;;7.30;1.65;;;-3.30;99.90;;;;;;5027374;28;20458;-66
2024/01/09 09:39:34;;;;;;;4.57;2.00;;;-3.20;99.90;;;;;;5026854;28;20033;-66
2024/01/09 09:42:00;;;;;;;4.80;1.70;;;-3.20;99.90;;;;;;5010986;28;20049;-66
2024/01/09 09:44:26;;;;;;;5.10;2.30;;;-3.10;99.90;;;;;;5026633;28;20488;-67
2024/01/09 09:46:53;;;;;;;8.20;1.90;;;-3.00;99.90;;;;;;5028682;28;20037;-67
2024/01/09 09:49:22;;;;;;;3.55;1.80;;;-3.00;99.90;;;;;;5019358;28;20045;-67
2024/01/09 09:51:53;;;;;;;6.30;2.60;;;-2.90;99.90;;;;;;5022135;28;20037;-66
2024/01/09 09:54:22;;;;;;;3.65;1.77;;;-2.80;99.90;;;;;;5023097;28;20067;-67
2024/01/09 09:56:47;;;;;;;6.72;2.25;;;-2.80;99.90;;;;;;5024533;28;20075;-67
2024/01/09 09:59:15;;;;;;;3.90;1.80;;;-2.70;99.90;;;;;;5026304;28;20042;-67
2024/01/09 10:01:43;;;;;;;8.32;2.42;;;-2.60;99.90;;;;;;5021586;28;20037;-67
2024/01/09 10:04:29;;;;;;;5.50;1.83;;;-2.50;99.90;;;;;;5024055;28;20041;-68
2024/01/09 10:06:59;;;;;;;6.90;2.30;;;-2.50;99.90;;;;;;5019181;28;20041;-67
2024/01/09 10:09:52;;;;;;;6.97;2.10;;;-2.40;99.90;;;;;;5026856;28;20040;-67
2024/01/09 10:12:24;;;;;;;4.45;1.63;;;-2.30;99.90;;;;;;5026552;28;20120;-67
2024/01/09 10:15:07;;;;;;;5.30;2.28;;;-2.20;99.90;;;;;;5025052;28;20044;-67
2024/01/09 10:17:43;;;;;;;5.03;2.03;;;-2.10;99.90;;;;;;5033313;28;20137;-67
2024/01/09 10:20:11;;;;;;;7.45;1.90;;;-2.00;99.90;;;;;;5023491;28;20046;-67
2024/01/09 10:22:38;;;;;;;6.22;2.28;;;-2.00;99.90;;;;;;4997338;28;20056;-67
2024/01/09 10:25:11;;;;;;;6.60;1.92;;;-1.90;99.90;;;;;;5023473;28;20045;-67
2024/01/09 10:27:38;;;;;;;5.45;2.00;;;-1.90;99.90;;;;;;5021466;28;20095;-67
2024/01/09 10:30:05;;;;;;;6.32;1.98;;;-1.80;99.90;;;;;;5004803;28;20041;-67
2024/01/09 10:32:34;;;;;;;;;;;-1.70;99.90;;;;;;5020793;28;20037;-67
2024/01/09 10:35:03;;;;;;;3.58;1.90;;;-1.70;99.90;;;;;;5023649;28;19917;-68
2024/01/09 10:37:30;;;;;;;5.07;2.00;;;-1.60;99.90;;;;;;5020717;28;20054;-67
2024/01/09 10:39:56;;;;;;;5.15;2.03;;;-1.50;99.90;;;;;;5018985;28;20050;-68
2024/01/09 10:42:22;;;;;;;3.70;1.90;;;-1.50;99.90;;;;;;5024163;28;20042;-67
2024/01/09 10:44:47;;;;;;;5.80;2.17;;;-1.50;99.90;;;;;;5005671;28;20033;-67
2024/01/09 10:47:14;;;;;;;5.70;1.83;;;-1.40;99.90;;;;;;5021916;28;20077;-67
2024/01/09 10:49:41;;;;;;;3.90;1.73;;;-1.40;99.90;;;;;;5026906;28;20044;-67
2024/01/09 10:52:15;;;;;;;3.97;1.90;;;-1.30;99.90;;;;;;5021144;28;20506;-67
2024/01/09 10:54:42;;;;;;;6.35;2.20;;;-1.30;99.90;;;;;;5027346;28;20044;-66
2024/01/09 10:57:15;;;;;;;7.03;2.28;;;-1.20;99.90;;;;;;5020290;28;20049;-67
2024/01/09 10:59:43;;;;;;;4.13;2.10;;;-1.10;99.90;;;;;;5024556;28;20038;-67
2024/01/09 11:02:17;;;;;;;4.25;2.15;;;-1.10;99.90;;;;;;5020329;28;20041;-67
2024/01/09 11:04:46;;;;;;;4.03;1.60;;;-1.00;99.90;;;;;;5015323;28;20052;-66
2024/01/09 11:07:15;;;;;;;6.00;1.60;;;-1.00;99.90;;;;;;5024565;28;20120;-67
2024/01/09 11:09:43;;;;;;;2.67;1.35;;;-0.90;99.90;;;;;;5020195;28;20048;-67
2024/01/09 11:12:13;;;;;;;4.55;1.65;;;-0.90;99.90;;;;;;5025414;28;20037;-67
2024/01/09 11:14:40;;;;;;;3.35;1.83;;;-0.80;99.90;;;;;;5027008;28;20088;-67
2024/01/09 11:17:08;;;;;;;2.95;1.35;;;-0.80;99.90;;;;;;5023560;28;20053;-67
2024/01/09 11:19:35;;;;;;;5.45;1.80;;;-0.70;99.90;;;;;;5018280;28;20053;-66
2024/01/09 11:22:13;;;;;;;4.18;1.90;;;-0.70;99.90;;;;;;5021398;28;20056;-66
2024/01/09 11:24:39;;;;;;;2.38;1.33;;;-0.60;99.90;;;;;;5022865;28;20073;-66
2024/01/09 11:27:13;;;;;;;4.00;1.77;;;-0.50;99.90;;;;;;5005621;28;20081;-66
2024/01/09 11:29:50;;;;;;;2.95;1.50;;;-0.50;99.90;;;;;;5018885;28;20073;-67
2024/01/09 11:32:17;;;;;;;3.92;1.50;;;-0.40;99.90;;;;;;5024104;28;20048;-67
2024/01/09 11:35:06;;;;;;;4.30;1.50;;;-0.40;99.90;;;;;;5034193;28;20041;-67
2024/01/09 11:37:32;;;;;;;4.88;1.67;;;-0.30;99.90;;;;;;5019677;28;20118;-67
2024/01/09 11:39:59;;;;;;;3.23;1.60;;;-0.30;99.90;;;;;;5026785;28;20084;-67
2024/01/09 11:42:25;;;;;;;6.38;1.67;;;-0.20;99.90;;;;;;5024265;28;20343;-67
2024/01/09 11:44:52;;;;;;;7.18;2.05;;;-0.20;99.90;;;;;;5023960;28;20390;-67
2024/01/09 11:47:18;;;;;;;;;;;-0.10;99.90;;;;;;5016223;28;20355;-67
2024/01/09 11:49:44;;;;;;;7.38;1.80;;;0.00;99.90;;;;;;5022070;28;19917;-67
2024/01/09 11:52:10;;;;;;;;;;;0.00;99.90;;;;;;5021910;28;20045;-67
2024/01/09 11:54:36;;;;;;;4.35;1.60;;;0.00;99.90;;;;;;5021676;28;19924;-67
2024/01/09 11:57:03;;;;;;;1.98;1.20;;;0.10;99.90;;;;;;5020300;28;20575;-67
2024/01/09 11:59:30;;;;;;;3.35;1.60;;;0.20;99.90;;;;;;5023569;28;20518;-70
2024/01/09 12:01:56;;;;;;;2.75;1.30;;;0.20;99.90;;;;;;5018968;28;20068;-68
2024/01/09 12:04:22;;;;;;;2.63;1.10;;;0.30;99.90;;;;;;5017772;28;20041;-68
2024/01/09 12:06:48;;;;;;;5.97;1.38;;;0.30;99.90;;;;;;5024314;28;20154;-67
2024/01/09 12:09:14;;;;;;;4.23;1.53;;;0.40;99.90;;;;;;5018647;28;20055;-67
2024/01/09 12:11:39;;;;;;;3.03;1.50;;;0.50;99.90;;;;;;5022023;28;20061;-67
2024/01/09 12:14:07;;;;;;;2.57;1.10;;;0.50;99.90;;;;;;5022902;28;20124;-67
2024/01/09 12:16:33;;;;;;;4.40;1.55;;;0.60;99.90;;;;;;5014807;28;20041;-66
2024/01/09 12:18:59;;;;;;;2.60;1.17;;;0.60;99.90;;;;;;4994746;28;20067;-66
2024/01/09 12:21:28;;;;;;;1.85;1.13;;;0.60;99.90;;;;;;5019623;28;20041;-66
2024/01/09 12:23:55;;;;;;;2.67;1.15;;;0.60;99.90;;;;;;5028332;28;20371;-67
2024/01/09 12:26:22;;;;;;;1.90;0.80;;;0.70;99.90;;;;;;5021041;28;20033;-66
2024/01/09 12:28:48;;;;;;;4.32;0.93;;;0.70;99.90;;;;;;5013515;28;20103;-67
2024/01/09 12:31:17;;;;;;;2.35;1.25;;;0.70;99.90;;;;;;5018189;28;20048;-66
2024/01/09 12:33:44;;;;;;;3.10;1.30;;;0.70;99.90;;;;;;5018592;28;20092;-67
2024/01/09 12:36:10;;;;;;;1.73;0.90;;;0.80;99.90;;;;;;5022914;28;20494;-67
2024/01/09 12:38:36;;;;;;;4.10;1.97;;;0.80;99.90;;;;;;5021158;28;20052;-66
2024/01/09 12:41:06;;;;;;;2.23;1.27;;;0.90;99.90;;;;;;5020504;28;20128;-67
2024/01/09 12:43:33;;;;;;;3.55;1.30;;;1.00;99.90;;;;;;5020132;28;20217;-66
2024/01/09 12:46:03;;;;;;;2.83;1.30;;;1.00;99.90;;;;;;5023164;28;20045;-67